シンガポール/チャンギ の空港の天気 - METARとTAF

シンガポール・チャンギ国際空港 ( WSSS / SIN ) - シンガポール Changi
飛行場実況気象(Metar)
観測時間10/16 01:30 SGT (10/15 17:30 UTC)
風向・風速北北東 2m/s
視程10km以上
天気現象
少しの雲 雲底高度 490m
全天の8割程度の雲 雲底高度 4270m
気温28℃
湿度89%
気圧1011hPa
METARWSSS 151730Z 02003KT 330V060 9999 FEW016 BKN140 28/26 Q1011 NOSIG
過去の天気等 Google飛行場航空写真 Wunderground天気予報

過去48時間のMETAR

飛行場予報(TAF)
発表時間: 10/16 01:00 SGT (10/15 17:00 UTC)
予報対象時間: 16日2時 SGT ~ 17日8時 SGT
風向・風速東 4m/s
視程10km以上
少しの雲 雲底高度 460m
全天の4割程度の雲 雲底高度 610m
16日13時 SGT ~ 16日16時 SGT に一時的に
視程3000m
天気現象雷雨
少しの積乱雲 雲底高度 370m
全天の8割程度の雲 雲底高度 460m
TAF WSSS 151700Z 1518/1700 10007KT 9999 FEW015 SCT020
TEMPO 1605/1608 3000 TSRA FEW012CB BKN015